createdAt,value
2017-12-21T00:00:57.447Z,22.10
2017-12-21T00:03:25.631Z,21.58
2017-12-21T00:05:52.785Z,21.87
2017-12-21T00:08:19.839Z,22.50
2017-12-21T00:10:47.009Z,21.62
2017-12-21T00:13:14.666Z,21.27
2017-12-21T00:15:41.617Z,23.92
2017-12-21T00:18:09.302Z,23.27
2017-12-21T00:20:36.283Z,24.23
2017-12-21T00:23:03.007Z,22.55
2017-12-21T00:25:30.095Z,26.62
2017-12-21T00:27:56.529Z,20.08
2017-12-21T00:30:23.344Z,21.30
2017-12-21T00:32:50.993Z,22.27
2017-12-21T00:35:17.595Z,24.02
2017-12-21T00:37:44.242Z,21.95
2017-12-21T00:40:11.236Z,22.40
2017-12-21T00:42:38.067Z,22.13
2017-12-21T00:45:06.136Z,23.35
2017-12-21T00:47:33.106Z,24.05
2017-12-21T00:50:00.842Z,19.70
2017-12-21T00:52:28.002Z,22.13
2017-12-21T00:54:54.986Z,22.65
2017-12-21T00:57:21.593Z,23.25
2017-12-21T00:59:48.507Z,20.95
2017-12-21T01:02:14.961Z,21.08
2017-12-21T01:04:42.055Z,21.77
2017-12-21T01:07:08.791Z,23.12
2017-12-21T01:09:36.019Z,22.83
2017-12-21T01:12:02.879Z,20.20
2017-12-21T01:14:30.918Z,19.60
2017-12-21T01:16:57.946Z,20.00
2017-12-21T01:19:25.189Z,20.33
2017-12-21T01:21:51.722Z,20.73
2017-12-21T01:24:18.777Z,21.45
2017-12-21T01:26:45.730Z,20.00
2017-12-21T01:29:12.574Z,22.98
2017-12-21T01:31:39.054Z,22.92
2017-12-21T01:34:06.557Z,23.52
2017-12-21T01:36:33.834Z,19.85
2017-12-21T01:39:00.355Z,22.33
2017-12-21T01:41:27.114Z,22.13
2017-12-21T01:43:53.546Z,19.85
2017-12-21T01:46:20.430Z,21.12
2017-12-21T01:48:47.477Z,23.50
2017-12-21T01:51:14.130Z,22.45
2017-12-21T01:53:41.206Z,25.25
2017-12-21T01:56:08.605Z,21.23
2017-12-21T01:58:35.583Z,23.35
2017-12-21T02:01:03.675Z,23.42
2017-12-21T02:03:30.699Z,24.15
2017-12-21T02:05:57.642Z,24.35
2017-12-21T02:08:24.903Z,24.60
2017-12-21T02:10:51.678Z,22.13
2017-12-21T02:13:18.290Z,28.08
2017-12-21T02:15:45.267Z,22.17
2017-12-21T02:18:12.924Z,23.77
2017-12-21T02:20:39.767Z,23.67
2017-12-21T02:23:06.722Z,25.12
2017-12-21T02:25:33.696Z,25.67
2017-12-21T02:28:01.159Z,26.70
2017-12-21T02:30:28.478Z,24.80
2017-12-21T02:32:55.495Z,24.87
2017-12-21T02:35:22.337Z,27.73
2017-12-21T02:37:48.771Z,31.00
2017-12-21T02:40:15.400Z,19.45
2017-12-21T02:42:43.432Z,22.75
2017-12-21T02:45:09.966Z,17.10
2017-12-21T02:47:37.001Z,26.80
2017-12-21T02:50:04.110Z,26.17
2017-12-21T02:52:31.743Z,20.42
2017-12-21T02:54:58.963Z,21.25
2017-12-21T02:57:25.962Z,23.73
2017-12-21T02:59:52.349Z,22.08
2017-12-21T03:02:19.434Z,16.80
2017-12-21T03:04:45.898Z,19.83
2017-12-21T03:07:12.934Z,23.55
2017-12-21T03:09:39.683Z,25.20
2017-12-21T03:12:08.402Z,25.55
2017-12-21T03:14:35.129Z,34.50
2017-12-21T03:17:02.305Z,29.15
2017-12-21T03:19:29.823Z,28.60
2017-12-21T03:21:56.782Z,29.85
2017-12-21T03:24:24.587Z,27.80
2017-12-21T03:26:52.022Z,30.70
2017-12-21T03:29:18.810Z,29.40
2017-12-21T03:31:46.723Z,27.42
2017-12-21T03:34:13.259Z,30.17
2017-12-21T03:36:40.245Z,26.17
2017-12-21T03:39:07.078Z,28.17
2017-12-21T03:41:38.590Z,25.83
2017-12-21T03:44:05.337Z,29.35
2017-12-21T03:46:32.947Z,26.45
2017-12-21T03:49:00.221Z,23.85
2017-12-21T03:51:26.670Z,26.15
2017-12-21T03:53:54.362Z,20.37
2017-12-21T03:56:21.355Z,26.25
2017-12-21T03:58:48.411Z,28.25
2017-12-21T04:01:15.458Z,30.30
2017-12-21T04:03:42.055Z,35.75
2017-12-21T04:06:09.434Z,35.75
2017-12-21T04:08:36.519Z,35.88
2017-12-21T04:11:02.954Z,33.60
2017-12-21T04:13:29.495Z,33.22
2017-12-21T04:15:56.695Z,35.40
2017-12-21T04:18:23.977Z,34.28
2017-12-21T04:20:51.378Z,27.42
2017-12-21T04:23:18.525Z,36.47
2017-12-21T04:25:45.466Z,34.45
2017-12-21T04:28:12.307Z,34.33
2017-12-21T04:30:39.387Z,33.88
2017-12-21T04:33:06.190Z,34.95
2017-12-21T04:35:34.027Z,39.33
2017-12-21T04:38:01.555Z,31.92
2017-12-21T04:40:29.131Z,23.38
2017-12-21T04:42:56.062Z,34.97
2017-12-21T04:45:23.031Z,38.38
2017-12-21T04:47:49.581Z,34.10
2017-12-21T04:50:16.518Z,30.15
2017-12-21T04:52:43.444Z,32.10
2017-12-21T04:55:10.518Z,29.58
2017-12-21T04:57:37.498Z,33.85
2017-12-21T05:00:05.422Z,32.78
2017-12-21T05:02:32.603Z,19.15
2017-12-21T05:04:59.058Z,25.98
2017-12-21T05:07:25.927Z,26.65
2017-12-21T05:09:53.859Z,13.85
2017-12-21T05:12:20.469Z,38.55
2017-12-21T05:14:47.554Z,35.45
2017-12-21T05:17:15.036Z,35.67
2017-12-21T05:19:42.069Z,24.05
2017-12-21T05:22:09.223Z,39.60
2017-12-21T05:24:36.199Z,37.55
2017-12-21T05:27:03.832Z,20.42
2017-12-21T05:29:31.205Z,27.70
2017-12-21T05:31:58.262Z,38.72
2017-12-21T05:34:25.315Z,32.97
2017-12-21T05:36:53.888Z,35.53
2017-12-21T05:39:20.383Z,39.33
2017-12-21T05:41:47.488Z,28.15
2017-12-21T05:44:14.626Z,37.35
2017-12-21T05:46:41.171Z,32.92
2017-12-21T05:49:08.234Z,39.67
2017-12-21T05:51:34.975Z,35.20
2017-12-21T05:54:02.085Z,39.08
2017-12-21T05:56:28.879Z,42.45
2017-12-21T05:58:55.441Z,37.42
2017-12-21T06:01:23.551Z,37.85
2017-12-21T06:03:50.105Z,35.33
2017-12-21T06:06:16.563Z,33.63
2017-12-21T06:08:43.522Z,37.50
2017-12-21T06:11:10.684Z,33.78
2017-12-21T06:13:37.777Z,29.75
2017-12-21T06:16:04.582Z,34.05
2017-12-21T06:18:31.524Z,34.47
2017-12-21T06:20:58.371Z,32.88
2017-12-21T06:23:24.842Z,29.37
2017-12-21T06:25:52.604Z,32.17
2017-12-21T06:28:20.494Z,31.42
2017-12-21T06:30:48.219Z,35.30
2017-12-21T06:33:15.164Z,32.78
2017-12-21T06:35:42.227Z,30.92
2017-12-21T06:38:08.710Z,32.40
2017-12-21T06:40:35.896Z,35.08
2017-12-21T06:43:02.733Z,34.63
2017-12-21T06:45:29.642Z,29.48
2017-12-21T06:47:57.281Z,32.88
2017-12-21T06:50:24.878Z,25.62
2017-12-21T06:52:52.438Z,30.35
2017-12-21T06:55:19.466Z,23.62
2017-12-21T06:57:46.727Z,26.87
2017-12-21T07:00:13.575Z,18.10
2017-12-21T07:02:40.558Z,8.52
2017-12-21T07:05:08.070Z,20.08
2017-12-21T07:07:35.122Z,9.95
2017-12-21T07:10:02.414Z,16.37
2017-12-21T07:12:29.046Z,14.57
2017-12-21T07:14:55.904Z,18.60
2017-12-21T07:17:22.826Z,20.98
2017-12-21T07:19:49.818Z,25.23
2017-12-21T07:22:18.103Z,21.98
2017-12-21T07:24:45.355Z,22.23
2017-12-21T07:27:12.471Z,17.55
2017-12-21T07:29:40.147Z,26.27
2017-12-21T07:32:06.758Z,24.00
2017-12-21T07:34:33.650Z,22.25
2017-12-21T07:37:02.090Z,25.92
2017-12-21T07:39:28.630Z,21.62
2017-12-21T07:41:55.827Z,20.30
2017-12-21T07:44:22.871Z,22.08
2017-12-21T07:46:49.755Z,29.92
2017-12-21T07:49:17.482Z,25.30
2017-12-21T07:51:44.315Z,29.45
2017-12-21T07:54:10.724Z,26.08
2017-12-21T07:56:37.337Z,29.80
2017-12-21T07:59:04.785Z,20.67
2017-12-21T08:01:33.262Z,16.23
2017-12-21T08:03:59.933Z,24.20
2017-12-21T08:06:27.874Z,22.02
2017-12-21T08:08:54.727Z,19.70
2017-12-21T08:11:21.404Z,15.73
2017-12-21T08:13:48.575Z,24.52
2017-12-21T08:16:16.420Z,19.02
2017-12-21T08:18:43.850Z,21.02
2017-12-21T08:21:10.673Z,26.92
2017-12-21T08:23:37.881Z,25.37
2017-12-21T08:26:05.525Z,24.77
2017-12-21T08:28:32.278Z,21.90
2017-12-21T08:30:59.421Z,28.85
2017-12-21T08:33:27.023Z,30.15
2017-12-21T08:35:54.767Z,26.27
2017-12-21T08:38:23.268Z,27.35
2017-12-21T08:40:49.902Z,27.50
2017-12-21T08:43:17.044Z,24.25
2017-12-21T08:45:44.916Z,16.50
2017-12-21T08:48:12.454Z,24.77
2017-12-21T08:50:39.161Z,21.87
2017-12-21T08:53:06.904Z,26.10
2017-12-21T08:55:33.751Z,21.70
2017-12-21T08:58:01.204Z,13.35
2017-12-21T09:00:28.454Z,14.48
2017-12-21T09:02:55.533Z,20.33
2017-12-21T09:05:22.878Z,21.33
2017-12-21T09:07:49.677Z,17.65
2017-12-21T09:10:16.282Z,24.90
2017-12-21T09:12:43.931Z,22.17
2017-12-21T09:15:10.831Z,22.67
2017-12-21T09:17:37.823Z,23.75
2017-12-21T09:20:05.197Z,19.15
2017-12-21T09:22:31.731Z,22.77
2017-12-21T09:24:58.890Z,19.95
2017-12-21T09:27:26.257Z,23.55
2017-12-21T09:29:52.854Z,25.40
2017-12-21T09:32:19.839Z,18.80
2017-12-21T09:34:46.658Z,24.33
2017-12-21T09:37:13.284Z,11.70
2017-12-21T09:39:40.202Z,17.33
2017-12-21T09:42:07.943Z,24.87
2017-12-21T09:44:35.110Z,25.52
2017-12-21T09:47:04.107Z,17.48
2017-12-21T09:49:31.138Z,22.50
2017-12-21T09:51:57.727Z,23.65
2017-12-21T09:54:25.551Z,20.27
2017-12-21T09:56:52.618Z,24.52
2017-12-21T09:59:19.459Z,21.40
2017-12-21T10:01:45.890Z,23.92
2017-12-21T10:04:12.562Z,22.70
2017-12-21T10:06:40.262Z,19.90
2017-12-21T10:09:07.366Z,15.05
2017-12-21T10:11:34.614Z,18.25
2017-12-21T10:14:01.456Z,20.42
2017-12-21T10:16:28.694Z,17.90
2017-12-21T10:18:56.131Z,21.23
2017-12-21T10:21:23.465Z,30.62
2017-12-21T10:23:50.598Z,19.48
2017-12-21T10:26:17.419Z,20.42
2017-12-21T10:28:51.346Z,18.87
2017-12-21T10:31:18.207Z,17.85
2017-12-21T10:33:44.838Z,20.58
2017-12-21T10:36:11.753Z,18.48
2017-12-21T10:38:45.824Z,18.08
2017-12-21T10:41:12.659Z,14.73
2017-12-21T10:43:39.640Z,13.45
2017-12-21T10:46:07.383Z,12.75
2017-12-21T10:48:34.287Z,16.20
2017-12-21T10:51:01.383Z,15.98
2017-12-21T10:53:39.012Z,11.82
2017-12-21T10:56:07.883Z,15.27
2017-12-21T10:58:34.790Z,15.77
2017-12-21T11:01:01.912Z,17.00
2017-12-21T11:03:29.930Z,14.50
2017-12-21T11:05:57.019Z,12.93
2017-12-21T11:08:24.525Z,7.80
2017-12-21T11:10:51.324Z,12.45
2017-12-21T11:13:18.690Z,17.33
2017-12-21T11:15:47.162Z,13.90
2017-12-21T11:18:13.817Z,15.85
2017-12-21T11:20:44.123Z,14.75
2017-12-21T11:23:11.747Z,14.25
2017-12-21T11:25:38.445Z,19.80
2017-12-21T11:28:05.290Z,16.00
2017-12-21T11:30:31.698Z,16.33
2017-12-21T11:32:58.503Z,14.30
2017-12-21T11:35:26.035Z,23.20
2017-12-21T11:37:52.725Z,17.92
2017-12-21T11:40:20.532Z,20.17
2017-12-21T11:42:47.446Z,17.10
2017-12-21T11:45:14.380Z,21.08
2017-12-21T11:47:41.562Z,19.08
2017-12-21T11:50:08.587Z,12.68
2017-12-21T11:52:36.711Z,19.25
2017-12-21T11:55:03.147Z,17.73
2017-12-21T11:57:29.768Z,15.45
2017-12-21T11:59:56.356Z,16.12
2017-12-21T12:02:23.323Z,19.87
2017-12-21T12:04:50.166Z,18.20
2017-12-21T12:07:17.266Z,16.45
2017-12-21T12:09:44.166Z,20.05
2017-12-21T12:12:10.923Z,19.23
2017-12-21T12:14:37.904Z,12.48
2017-12-21T12:17:05.101Z,16.77
2017-12-21T12:19:32.102Z,12.60
2017-12-21T12:21:59.866Z,14.35
2017-12-21T12:24:27.564Z,14.73
2017-12-21T12:26:54.151Z,16.65
2017-12-21T12:29:20.992Z,14.55
2017-12-21T12:31:47.901Z,13.57
2017-12-21T12:34:14.466Z,16.05
2017-12-21T12:36:41.538Z,6.62
2017-12-21T12:39:07.975Z,13.77
2017-12-21T12:41:35.230Z,9.45
2017-12-21T12:44:02.418Z,8.32
2017-12-21T12:46:29.968Z,14.63
2017-12-21T12:48:57.524Z,13.05
2017-12-21T12:51:25.487Z,8.93
2017-12-21T12:53:52.350Z,17.62
2017-12-21T12:56:19.581Z,12.75
2017-12-21T12:58:47.163Z,16.08
2017-12-21T13:01:14.320Z,14.52
2017-12-21T13:03:42.350Z,12.95
2017-12-21T13:06:09.383Z,15.93
2017-12-21T13:08:36.594Z,13.57
2017-12-21T13:11:03.631Z,12.63
2017-12-21T13:13:30.166Z,9.68
2017-12-21T13:15:57.163Z,11.20
2017-12-21T13:18:24.695Z,10.73
2017-12-21T13:20:51.675Z,12.20
2017-12-21T13:23:19.552Z,11.73
2017-12-21T13:25:47.519Z,14.25
2017-12-21T13:28:15.596Z,14.02
2017-12-21T13:30:43.230Z,14.82
2017-12-21T13:33:11.115Z,17.10
2017-12-21T13:35:38.155Z,16.80
2017-12-21T13:38:04.811Z,16.25
2017-12-21T13:40:34.422Z,14.13
2017-12-21T13:43:01.375Z,17.15
2017-12-21T13:45:28.495Z,10.13
2017-12-21T13:47:55.375Z,14.85
2017-12-21T13:50:21.860Z,8.77
2017-12-21T13:52:48.678Z,14.32
2017-12-21T13:55:16.857Z,13.23
2017-12-21T13:57:47.804Z,10.00
2017-12-21T14:00:15.214Z,18.92
2017-12-21T14:02:42.181Z,12.25
2017-12-21T14:05:09.464Z,16.65
2017-12-21T14:07:36.528Z,14.93
2017-12-21T14:10:04.109Z,12.20
2017-12-21T14:12:31.908Z,9.35
2017-12-21T14:14:58.492Z,14.38
2017-12-21T14:17:26.144Z,19.75
2017-12-21T14:19:55.186Z,15.82
2017-12-21T14:22:22.248Z,13.70
2017-12-21T14:24:48.719Z,13.32
2017-12-21T14:27:15.675Z,6.90
2017-12-21T14:29:42.588Z,14.32
2017-12-21T14:32:09.495Z,11.15
2017-12-21T14:34:36.766Z,13.05
2017-12-21T14:37:04.104Z,13.30
2017-12-21T14:39:31.367Z,12.80
2017-12-21T14:41:58.345Z,11.05
2017-12-21T14:44:24.834Z,6.20
2017-12-21T14:46:51.335Z,13.20
2017-12-21T14:49:17.794Z,10.05
2017-12-21T14:51:44.261Z,8.50
2017-12-21T14:54:10.748Z,7.32
2017-12-21T14:56:37.166Z,8.15
2017-12-21T14:59:04.456Z,20.25
2017-12-21T15:01:30.954Z,13.75
2017-12-21T15:03:57.393Z,8.60
2017-12-21T15:06:23.819Z,10.93
2017-12-21T15:08:50.282Z,7.65
2017-12-21T15:11:17.694Z,10.63
2017-12-21T15:13:44.298Z,11.55
2017-12-21T15:16:10.711Z,13.38
2017-12-21T15:18:37.612Z,6.70
2017-12-21T15:21:04.084Z,10.30
2017-12-21T15:23:30.540Z,8.55
2017-12-21T15:25:57.021Z,13.07
2017-12-21T15:28:23.627Z,9.82
2017-12-21T15:30:50.951Z,11.63
2017-12-21T15:33:17.414Z,8.70
2017-12-21T15:35:43.919Z,8.30
2017-12-21T15:38:10.432Z,12.20
2017-12-21T15:40:36.890Z,17.20
2017-12-21T15:43:03.335Z,9.68
2017-12-21T15:45:29.876Z,10.10
2017-12-21T15:47:56.309Z,12.35
2017-12-21T15:50:22.891Z,11.70
2017-12-21T15:52:49.327Z,10.35
2017-12-21T15:55:17.290Z,13.20
2017-12-21T15:57:43.707Z,11.80
2017-12-21T16:00:10.140Z,9.63
2017-12-21T16:02:36.569Z,13.15
2017-12-21T16:05:03.088Z,9.43
2017-12-21T16:07:29.713Z,10.23
2017-12-21T16:09:57.007Z,9.10
2017-12-21T16:12:23.510Z,11.23
2017-12-21T16:14:50.690Z,10.85
2017-12-21T16:17:17.862Z,12.07
2017-12-21T16:19:44.322Z,12.10
2017-12-21T16:22:10.776Z,7.12
2017-12-21T16:24:37.422Z,4.85
2017-12-21T16:27:03.876Z,8.75
2017-12-21T16:29:30.401Z,8.25
2017-12-21T16:31:56.877Z,11.48
2017-12-21T16:34:31.070Z,7.32
2017-12-21T16:36:58.233Z,8.80
2017-12-21T16:39:24.699Z,8.00
2017-12-21T16:41:51.937Z,8.68
2017-12-21T16:44:19.666Z,7.40
2017-12-21T16:46:46.294Z,6.53
2017-12-21T16:49:12.705Z,9.90
2017-12-21T16:51:39.883Z,5.43
2017-12-21T16:54:06.331Z,6.50
2017-12-21T16:56:33.299Z,8.38
2017-12-21T16:58:59.743Z,8.90
2017-12-21T17:01:26.174Z,8.50
2017-12-21T17:03:52.640Z,9.23
2017-12-21T17:06:19.851Z,5.15
2017-12-21T17:08:46.319Z,5.65
2017-12-21T17:11:12.758Z,8.30
2017-12-21T17:13:39.220Z,6.53
2017-12-21T17:16:06.507Z,7.15
2017-12-21T17:18:33.030Z,4.62
2017-12-21T17:21:00.326Z,7.87
2017-12-21T17:23:26.860Z,7.65
2017-12-21T17:25:53.336Z,7.95
2017-12-21T17:28:19.926Z,3.70
2017-12-21T17:30:46.364Z,8.80
2017-12-21T17:33:12.834Z,5.35
2017-12-21T17:35:39.398Z,12.70
2017-12-21T17:38:05.841Z,9.50
2017-12-21T17:40:32.380Z,9.90
2017-12-21T17:43:05.996Z,11.20
2017-12-21T17:45:33.212Z,11.02
2017-12-21T17:47:59.659Z,11.40
2017-12-21T17:50:26.194Z,11.05
2017-12-21T17:52:52.707Z,11.20
2017-12-21T17:55:19.879Z,12.48
2017-12-21T17:57:46.354Z,11.20
2017-12-21T18:00:12.788Z,14.07
2017-12-21T18:02:40.131Z,13.35
2017-12-21T18:05:06.614Z,14.07
2017-12-21T18:07:33.961Z,10.30
2017-12-21T18:10:01.210Z,13.02
2017-12-21T18:12:29.218Z,13.95
2017-12-21T18:14:56.481Z,14.80
2017-12-21T18:17:22.934Z,10.68
2017-12-21T18:19:49.447Z,12.18
2017-12-21T18:22:16.709Z,12.88
2017-12-21T18:24:43.338Z,16.75
2017-12-21T18:27:10.621Z,17.48
2017-12-21T18:29:37.216Z,19.67
2017-12-21T18:32:04.717Z,16.08
2017-12-21T18:34:31.443Z,18.37
2017-12-21T18:36:57.953Z,15.15
2017-12-21T18:39:24.453Z,18.37
2017-12-21T18:41:51.188Z,19.42
2017-12-21T18:44:17.859Z,17.60
2017-12-21T18:46:44.426Z,16.77
2017-12-21T18:49:11.846Z,12.68
2017-12-21T18:51:38.427Z,17.55
2017-12-21T18:54:05.775Z,19.12
2017-12-21T18:56:33.346Z,16.65
2017-12-21T18:59:01.003Z,14.50
2017-12-21T19:01:27.794Z,14.60
2017-12-21T19:03:54.431Z,15.18
2017-12-21T19:06:21.503Z,7.55
2017-12-21T19:08:48.116Z,10.75
2017-12-21T19:11:16.010Z,10.93
2017-12-21T19:13:42.861Z,15.43
2017-12-21T19:16:09.698Z,14.13
2017-12-21T19:18:36.484Z,13.35
2017-12-21T19:21:04.217Z,13.62
2017-12-21T19:23:31.073Z,14.90
2017-12-21T19:25:58.951Z,13.32
2017-12-21T19:28:25.759Z,11.00
2017-12-21T19:30:54.392Z,16.58
2017-12-21T19:33:21.119Z,17.67
2017-12-21T19:35:47.908Z,17.75
2017-12-21T19:38:14.736Z,10.43
2017-12-21T19:40:42.474Z,16.33
2017-12-21T19:43:10.361Z,15.35
2017-12-21T19:45:38.320Z,18.15
2017-12-21T19:49:36.918Z,19.80
2017-12-21T19:52:04.423Z,15.38
2017-12-21T19:54:31.974Z,16.48
2017-12-21T19:56:58.783Z,19.02
2017-12-21T19:59:25.601Z,17.20
2017-12-21T20:01:54.029Z,16.33
2017-12-21T20:04:20.845Z,16.42
2017-12-21T20:06:48.474Z,18.65
2017-12-21T20:09:16.424Z,13.38
2017-12-21T20:11:43.704Z,18.05
2017-12-21T20:14:10.539Z,14.98
2017-12-21T20:16:38.529Z,16.20
2017-12-21T20:19:06.138Z,14.48
2017-12-21T20:21:33.771Z,13.32
2017-12-21T20:24:01.660Z,14.18
2017-12-21T20:26:28.632Z,15.20
2017-12-21T20:28:55.632Z,13.68
2017-12-21T20:31:22.548Z,13.70
2017-12-21T20:36:47.884Z,16.45
2017-12-21T20:39:14.914Z,14.38
2017-12-21T20:41:42.434Z,16.67
2017-12-21T20:44:09.210Z,13.98
2017-12-21T20:46:36.023Z,16.35
2017-12-21T20:49:03.541Z,30.50
2017-12-21T20:51:30.295Z,19.70
2017-12-21T20:53:57.947Z,16.35
2017-12-21T20:56:24.776Z,17.62
2017-12-21T20:58:51.510Z,17.85
2017-12-21T21:01:19.838Z,15.13
2017-12-21T21:03:47.338Z,13.70
2017-12-21T21:06:14.877Z,15.43
2017-12-21T21:08:41.598Z,13.13
2017-12-21T21:11:08.316Z,11.88
2017-12-21T21:13:35.105Z,13.18
2017-12-21T21:16:01.844Z,13.27
2017-12-21T21:18:28.579Z,13.57
2017-12-21T21:20:55.380Z,12.00
2017-12-21T21:23:23.030Z,12.07
2017-12-21T21:25:49.649Z,11.00
2017-12-21T21:28:16.668Z,9.25
2017-12-21T21:30:43.499Z,13.98
2017-12-21T21:33:10.225Z,10.77
2017-12-21T21:35:36.839Z,11.20
2017-12-21T21:38:03.669Z,8.52
2017-12-21T21:40:30.371Z,8.90
2017-12-21T21:42:57.692Z,10.05
2017-12-21T21:45:24.429Z,9.60
2017-12-21T21:47:51.027Z,8.15
2017-12-21T21:50:17.643Z,9.57
2017-12-21T21:52:44.950Z,10.60
2017-12-21T21:55:11.833Z,10.57
2017-12-21T21:57:39.394Z,10.00
2017-12-21T22:00:06.646Z,9.80
2017-12-21T22:02:33.389Z,9.55
2017-12-21T22:05:00.732Z,12.77
2017-12-21T22:07:28.002Z,9.73
2017-12-21T22:09:55.343Z,10.68
2017-12-21T22:12:21.814Z,12.90
2017-12-21T22:14:48.341Z,7.93
2017-12-21T22:17:15.008Z,11.05
2017-12-21T22:19:41.513Z,13.80
2017-12-21T22:22:07.987Z,11.05
2017-12-21T22:24:35.968Z,9.75
2017-12-21T22:27:02.506Z,9.77
2017-12-21T22:29:28.953Z,7.60
2017-12-21T22:31:56.148Z,7.22
2017-12-21T22:34:22.730Z,7.43
2017-12-21T22:36:49.147Z,7.32
2017-12-21T22:39:15.917Z,7.95
2017-12-21T22:41:43.245Z,4.20
2017-12-21T22:44:09.712Z,7.80
2017-12-21T22:46:38.303Z,6.87
2017-12-21T22:49:05.349Z,5.87
2017-12-21T22:51:31.920Z,4.97
2017-12-21T22:53:58.554Z,2.83
2017-12-21T22:56:25.152Z,4.62
2017-12-21T22:58:51.616Z,5.60
2017-12-21T23:01:18.173Z,4.40
2017-12-21T23:03:44.760Z,7.00
2017-12-21T23:06:11.179Z,6.18
2017-12-21T23:08:37.935Z,7.50
2017-12-21T23:11:04.438Z,4.75
2017-12-21T23:13:31.944Z,3.00
2017-12-21T23:15:58.381Z,6.93
2017-12-21T23:18:24.829Z,8.07
2017-12-21T23:20:52.333Z,4.20
2017-12-21T23:23:19.569Z,7.18
2017-12-21T23:25:46.315Z,6.93
2017-12-21T23:28:13.726Z,6.32
2017-12-21T23:30:40.481Z,7.32
2017-12-21T23:33:06.934Z,6.97
2017-12-21T23:35:34.605Z,8.98
2017-12-21T23:38:01.758Z,6.03
2017-12-21T23:40:29.129Z,8.70
2017-12-21T23:42:55.657Z,9.48
2017-12-21T23:45:22.073Z,10.68
2017-12-21T23:47:49.755Z,6.50
2017-12-21T23:50:16.258Z,5.65
2017-12-21T23:52:42.655Z,4.72
2017-12-21T23:55:09.116Z,7.90
2017-12-21T23:57:35.534Z,10.77
